Aérodrome :
LOGIN :

S'inscrire | Disclaimer

   EN    FR    IT 

 










Légende :    VFR   VFR Marginal   IFR   IFR Intensif   IFR Très Intensif
Visi : 
Plafond : 
>= 8 km
>= 3000ft
5 à 8 km
1000 à 3000 ft
1500m à 5 km
500 à 1000 ft
800 à 1500m
200 à 500 ft
< 800m
< 200 ft
Symboles :   Orages  Brouillard  Fortes neiges  Fortes précipitations  Vent > 20 kt
SIGMETs :   Divers  Orages  Givrage  Turbulence  Onde Orograph.  Cendres Volcan.






- Altitude de l'aérodrome : 56 ft
- Code IATA : BZR


LFMU - Beziers / Vias

DERNIER METAR :
  • 010830Z AUTO 04007KT 9999 FEW033 09/07 Q1028 NOSIG

METARs EXPIRÉS :
  • 010800Z AUTO 06004KT CAVOK 08/07 Q1028 NOSIG
  • 010730Z AUTO 03005KT 9999 FEW033 07/06 Q1028 BECMG 11010KT
  • 010700Z AUTO 05005KT CAVOK 06/05 Q1028 NOSIG
  • 010630Z AUTO 04006KT CAVOK 06/05 Q1028 NOSIG
  • 010600Z AUTO 02006KT 9999 SCT032 06/05 Q1027 NOSIG

TAF TAF LFMU
Valide du 01 à 09h jusqu'au 02 à 09h UTC


010800Z 0109/0209 03005KT CAVOK
TEMPO 0111/0119 10010KT
ATIS : +33 4 67 90 88 88



MET'MAP, la Météo Aéronautique d'un coup d'oeil ! - Copyright ORBIFLY Décembre 2007 - Disclaimer

ORBIFLY MET'MAP TEAM :

Programmation & Développement : Alexandra Zaïnal
Sur une idée originale de : Baudouin d'Aumeries
Assistance à la programmation : Marc-Olivier Méhu
Soutien technique & logistique : Manuel Goepfert

Contact : metmap@orbifly.com




SOURCES & CREDITS :

   NOAA